sensor_id;sensor_type;location;lat;lon;timestamp;P1;durP1;ratioP1;P2;durP2;ratioP2
9763;SDS011;4921;43.214;27.936;2022-10-16T00:00:31;8.23;;;5.73;;
9763;SDS011;4921;43.214;27.936;2022-10-16T00:02:59;6.53;;;5.07;;
9763;SDS011;4921;43.214;27.936;2022-10-16T00:05:26;6.10;;;5.03;;
9763;SDS011;4921;43.214;27.936;2022-10-16T00:07:54;9.20;;;4.90;;
9763;SDS011;4921;43.214;27.936;2022-10-16T00:10:21;5.97;;;4.90;;
9763;SDS011;4921;43.214;27.936;2022-10-16T00:12:48;9.40;;;5.20;;
9763;SDS011;4921;43.214;27.936;2022-10-16T00:15:15;7.73;;;4.93;;
9763;SDS011;4921;43.214;27.936;2022-10-16T00:17:44;8.70;;;4.90;;
9763;SDS011;4921;43.214;27.936;2022-10-16T00:20:11;7.47;;;5.13;;
9763;SDS011;4921;43.214;27.936;2022-10-16T00:22:37;7.17;;;4.83;;
9763;SDS011;4921;43.214;27.936;2022-10-16T00:25:05;6.70;;;4.90;;
9763;SDS011;4921;43.214;27.936;2022-10-16T00:27:32;10.03;;;5.07;;
9763;SDS011;4921;43.214;27.936;2022-10-16T00:30:00;5.73;;;4.53;;
9763;SDS011;4921;43.214;27.936;2022-10-16T00:32:27;5.23;;;4.53;;
9763;SDS011;4921;43.214;27.936;2022-10-16T00:34:55;6.47;;;5.37;;
9763;SDS011;4921;43.214;27.936;2022-10-16T00:37:22;7.70;;;5.00;;
9763;SDS011;4921;43.214;27.936;2022-10-16T00:39:49;6.07;;;4.67;;
9763;SDS011;4921;43.214;27.936;2022-10-16T00:42:16;7.67;;;4.50;;
9763;SDS011;4921;43.214;27.936;2022-10-16T00:44:46;5.80;;;4.70;;
9763;SDS011;4921;43.214;27.936;2022-10-16T00:47:18;5.23;;;4.27;;
9763;SDS011;4921;43.214;27.936;2022-10-16T00:49:50;6.53;;;4.53;;
9763;SDS011;4921;43.214;27.936;2022-10-16T00:52:20;5.90;;;4.43;;
9763;SDS011;4921;43.214;27.936;2022-10-16T00:54:47;5.53;;;4.07;;
9763;SDS011;4921;43.214;27.936;2022-10-16T00:57:18;7.93;;;4.20;;
9763;SDS011;4921;43.214;27.936;2022-10-16T00:59:45;6.13;;;4.40;;
9763;SDS011;4921;43.214;27.936;2022-10-16T01:02:13;7.17;;;4.60;;
9763;SDS011;4921;43.214;27.936;2022-10-16T01:04:43;5.83;;;4.07;;
9763;SDS011;4921;43.214;27.936;2022-10-16T01:07:14;4.87;;;4.37;;
9763;SDS011;4921;43.214;27.936;2022-10-16T01:09:55;6.53;;;4.93;;
9763;SDS011;4921;43.214;27.936;2022-10-16T01:12:30;7.40;;;4.70;;
9763;SDS011;4921;43.214;27.936;2022-10-16T01:15:06;4.80;;;4.30;;
9763;SDS011;4921;43.214;27.936;2022-10-16T01:17:39;5.87;;;4.23;;
9763;SDS011;4921;43.214;27.936;2022-10-16T01:20:13;6.47;;;4.50;;
9763;SDS011;4921;43.214;27.936;2022-10-16T01:22:55;5.03;;;4.20;;
9763;SDS011;4921;43.214;27.936;2022-10-16T01:28:43;7.27;;;3.97;;
9763;SDS011;4921;43.214;27.936;2022-10-16T01:31:14;5.40;;;3.57;;
9763;SDS011;4921;43.214;27.936;2022-10-16T01:33:45;5.90;;;3.77;;
9763;SDS011;4921;43.214;27.936;2022-10-16T01:36:18;5.13;;;4.03;;
9763;SDS011;4921;43.214;27.936;2022-10-16T01:38:51;5.03;;;3.63;;
9763;SDS011;4921;43.214;27.936;2022-10-16T01:41:21;5.90;;;3.57;;
9763;SDS011;4921;43.214;27.936;2022-10-16T01:43:56;3.80;;;3.23;;
9763;SDS011;4921;43.214;27.936;2022-10-16T01:46:28;5.63;;;3.90;;
9763;SDS011;4921;43.214;27.936;2022-10-16T01:48:57;4.57;;;4.00;;
9763;SDS011;4921;43.214;27.936;2022-10-16T01:51:26;6.60;;;3.87;;
9763;SDS011;4921;43.214;27.936;2022-10-16T01:53:56;6.77;;;4.00;;
9763;SDS011;4921;43.214;27.936;2022-10-16T01:56:26;4.37;;;3.57;;
9763;SDS011;4921;43.214;27.936;2022-10-16T01:58:56;4.23;;;3.83;;
9763;SDS011;4921;43.214;27.936;2022-10-16T02:01:28;5.83;;;3.40;;
9763;SDS011;4921;43.214;27.936;2022-10-16T02:03:58;5.93;;;3.00;;
9763;SDS011;4921;43.214;27.936;2022-10-16T02:06:28;3.93;;;3.20;;
9763;SDS011;4921;43.214;27.936;2022-10-16T02:08:55;7.83;;;3.63;;
9763;SDS011;4921;43.214;27.936;2022-10-16T02:11:22;6.53;;;3.17;;
9763;SDS011;4921;43.214;27.936;2022-10-16T02:13:51;6.33;;;3.13;;
9763;SDS011;4921;43.214;27.936;2022-10-16T02:16:32;6.30;;;3.17;;
9763;SDS011;4921;43.214;27.936;2022-10-16T02:19:00;4.07;;;2.90;;
9763;SDS011;4921;43.214;27.936;2022-10-16T02:21:28;5.93;;;3.00;;
9763;SDS011;4921;43.214;27.936;2022-10-16T02:24:00;5.50;;;2.97;;
9763;SDS011;4921;43.214;27.936;2022-10-16T02:26:33;5.13;;;2.57;;
9763;SDS011;4921;43.214;27.936;2022-10-16T02:29:06;4.37;;;3.10;;
9763;SDS011;4921;43.214;27.936;2022-10-16T02:31:45;7.93;;;3.60;;
9763;SDS011;4921;43.214;27.936;2022-10-16T02:34:16;4.50;;;3.03;;
9763;SDS011;4921;43.214;27.936;2022-10-16T02:36:46;3.67;;;2.83;;
9763;SDS011;4921;43.214;27.936;2022-10-16T02:39:16;2.60;;;2.40;;
9763;SDS011;4921;43.214;27.936;2022-10-16T02:41:44;6.07;;;3.47;;
9763;SDS011;4921;43.214;27.936;2022-10-16T02:44:11;6.03;;;3.07;;
9763;SDS011;4921;43.214;27.936;2022-10-16T02:46:40;3.93;;;2.60;;
9763;SDS011;4921;43.214;27.936;2022-10-16T02:49:07;5.33;;;3.20;;
9763;SDS011;4921;43.214;27.936;2022-10-16T02:51:34;6.33;;;2.70;;
9763;SDS011;4921;43.214;27.936;2022-10-16T02:54:01;5.40;;;2.97;;
9763;SDS011;4921;43.214;27.936;2022-10-16T02:56:28;6.80;;;2.80;;
9763;SDS011;4921;43.214;27.936;2022-10-16T02:58:56;5.00;;;2.80;;
9763;SDS011;4921;43.214;27.936;2022-10-16T03:01:23;2.80;;;2.53;;
9763;SDS011;4921;43.214;27.936;2022-10-16T03:03:51;6.07;;;3.00;;
9763;SDS011;4921;43.214;27.936;2022-10-16T03:06:18;3.50;;;2.57;;
9763;SDS011;4921;43.214;27.936;2022-10-16T03:08:45;3.77;;;2.70;;
9763;SDS011;4921;43.214;27.936;2022-10-16T03:11:12;4.20;;;2.73;;
9763;SDS011;4921;43.214;27.936;2022-10-16T03:13:39;5.10;;;2.90;;
9763;SDS011;4921;43.214;27.936;2022-10-16T03:16:06;4.87;;;2.93;;
9763;SDS011;4921;43.214;27.936;2022-10-16T03:18:33;3.13;;;2.67;;
9763;SDS011;4921;43.214;27.936;2022-10-16T03:21:01;4.47;;;2.70;;
9763;SDS011;4921;43.214;27.936;2022-10-16T03:23:28;3.17;;;2.50;;
9763;SDS011;4921;43.214;27.936;2022-10-16T03:25:55;3.07;;;2.50;;
9763;SDS011;4921;43.214;27.936;2022-10-16T03:28:22;3.50;;;2.60;;
9763;SDS011;4921;43.214;27.936;2022-10-16T03:30:49;3.53;;;2.50;;
9763;SDS011;4921;43.214;27.936;2022-10-16T03:33:16;2.83;;;2.47;;
9763;SDS011;4921;43.214;27.936;2022-10-16T03:35:42;6.53;;;2.77;;
9763;SDS011;4921;43.214;27.936;2022-10-16T03:38:18;4.20;;;2.80;;
9763;SDS011;4921;43.214;27.936;2022-10-16T03:40:45;3.50;;;2.63;;
9763;SDS011;4921;43.214;27.936;2022-10-16T03:43:12;4.30;;;2.60;;
9763;SDS011;4921;43.214;27.936;2022-10-16T03:45:38;3.20;;;2.80;;
9763;SDS011;4921;43.214;27.936;2022-10-16T03:48:06;4.27;;;2.70;;
9763;SDS011;4921;43.214;27.936;2022-10-16T03:50:33;5.40;;;2.77;;
9763;SDS011;4921;43.214;27.936;2022-10-16T03:52:59;4.10;;;2.67;;
9763;SDS011;4921;43.214;27.936;2022-10-16T03:55:28;5.33;;;2.87;;
9763;SDS011;4921;43.214;27.936;2022-10-16T03:57:55;4.80;;;2.83;;
9763;SDS011;4921;43.214;27.936;2022-10-16T04:00:21;4.93;;;2.80;;
9763;SDS011;4921;43.214;27.936;2022-10-16T04:02:48;3.33;;;2.70;;
9763;SDS011;4921;43.214;27.936;2022-10-16T04:05:15;5.13;;;3.13;;
9763;SDS011;4921;43.214;27.936;2022-10-16T04:07:42;5.87;;;3.00;;
9763;SDS011;4921;43.214;27.936;2022-10-16T04:10:09;3.63;;;2.87;;
9763;SDS011;4921;43.214;27.936;2022-10-16T04:12:37;8.23;;;3.10;;
9763;SDS011;4921;43.214;27.936;2022-10-16T04:15:05;6.67;;;2.80;;
9763;SDS011;4921;43.214;27.936;2022-10-16T04:17:32;3.10;;;2.90;;
9763;SDS011;4921;43.214;27.936;2022-10-16T04:19:59;5.67;;;3.83;;
9763;SDS011;4921;43.214;27.936;2022-10-16T04:22:26;4.60;;;3.47;;
9763;SDS011;4921;43.214;27.936;2022-10-16T04:24:53;5.43;;;4.20;;
9763;SDS011;4921;43.214;27.936;2022-10-16T04:27:20;4.40;;;4.00;;
9763;SDS011;4921;43.214;27.936;2022-10-16T04:29:48;4.83;;;4.37;;
9763;SDS011;4921;43.214;27.936;2022-10-16T04:32:15;6.43;;;4.90;;
9763;SDS011;4921;43.214;27.936;2022-10-16T04:34:42;4.77;;;4.17;;
9763;SDS011;4921;43.214;27.936;2022-10-16T04:37:09;8.07;;;4.20;;
9763;SDS011;4921;43.214;27.936;2022-10-16T04:39:36;12.83;;;4.50;;
9763;SDS011;4921;43.214;27.936;2022-10-16T04:42:02;5.37;;;4.20;;
9763;SDS011;4921;43.214;27.936;2022-10-16T04:44:29;6.03;;;4.40;;
9763;SDS011;4921;43.214;27.936;2022-10-16T04:46:58;5.23;;;3.83;;
9763;SDS011;4921;43.214;27.936;2022-10-16T04:49:25;6.20;;;4.23;;
9763;SDS011;4921;43.214;27.936;2022-10-16T04:51:52;6.03;;;3.97;;
9763;SDS011;4921;43.214;27.936;2022-10-16T04:54:19;4.20;;;3.37;;
9763;SDS011;4921;43.214;27.936;2022-10-16T04:56:45;5.13;;;3.77;;
9763;SDS011;4921;43.214;27.936;2022-10-16T04:59:13;8.00;;;4.07;;
9763;SDS011;4921;43.214;27.936;2022-10-16T05:01:40;4.10;;;3.37;;
9763;SDS011;4921;43.214;27.936;2022-10-16T05:04:09;4.67;;;3.60;;
9763;SDS011;4921;43.214;27.936;2022-10-16T05:06:36;6.37;;;3.50;;
9763;SDS011;4921;43.214;27.936;2022-10-16T05:09:03;4.73;;;3.70;;
9763;SDS011;4921;43.214;27.936;2022-10-16T05:11:30;8.63;;;3.60;;
9763;SDS011;4921;43.214;27.936;2022-10-16T05:13:57;5.13;;;3.67;;
9763;SDS011;4921;43.214;27.936;2022-10-16T05:16:25;4.23;;;3.63;;
9763;SDS011;4921;43.214;27.936;2022-10-16T05:18:52;7.20;;;3.90;;
9763;SDS011;4921;43.214;27.936;2022-10-16T05:21:20;5.27;;;3.70;;
9763;SDS011;4921;43.214;27.936;2022-10-16T05:23:47;6.67;;;3.93;;
9763;SDS011;4921;43.214;27.936;2022-10-16T05:26:14;8.07;;;4.17;;
9763;SDS011;4921;43.214;27.936;2022-10-16T05:28:42;4.53;;;3.93;;
9763;SDS011;4921;43.214;27.936;2022-10-16T05:31:09;4.23;;;3.83;;
9763;SDS011;4921;43.214;27.936;2022-10-16T05:33:36;4.97;;;3.93;;
9763;SDS011;4921;43.214;27.936;2022-10-16T05:36:04;4.13;;;3.70;;
9763;SDS011;4921;43.214;27.936;2022-10-16T05:38:34;4.07;;;3.70;;
9763;SDS011;4921;43.214;27.936;2022-10-16T05:41:01;5.20;;;3.60;;
9763;SDS011;4921;43.214;27.936;2022-10-16T05:43:28;7.93;;;3.87;;
9763;SDS011;4921;43.214;27.936;2022-10-16T05:45:56;4.80;;;3.70;;
9763;SDS011;4921;43.214;27.936;2022-10-16T05:48:24;4.63;;;4.00;;
9763;SDS011;4921;43.214;27.936;2022-10-16T05:50:58;6.17;;;4.33;;
9763;SDS011;4921;43.214;27.936;2022-10-16T05:53:27;5.07;;;4.30;;
9763;SDS011;4921;43.214;27.936;2022-10-16T05:55:56;5.23;;;4.20;;
9763;SDS011;4921;43.214;27.936;2022-10-16T05:58:23;4.93;;;4.17;;
9763;SDS011;4921;43.214;27.936;2022-10-16T06:00:54;4.90;;;4.27;;
9763;SDS011;4921;43.214;27.936;2022-10-16T06:03:22;6.67;;;4.77;;
9763;SDS011;4921;43.214;27.936;2022-10-16T06:05:49;5.43;;;4.27;;
9763;SDS011;4921;43.214;27.936;2022-10-16T06:08:16;6.73;;;4.30;;
9763;SDS011;4921;43.214;27.936;2022-10-16T06:10:43;7.17;;;4.00;;
9763;SDS011;4921;43.214;27.936;2022-10-16T06:13:13;6.93;;;4.30;;
9763;SDS011;4921;43.214;27.936;2022-10-16T06:15:41;6.80;;;3.70;;
9763;SDS011;4921;43.214;27.936;2022-10-16T06:18:09;5.67;;;3.70;;
9763;SDS011;4921;43.214;27.936;2022-10-16T06:20:36;4.53;;;3.47;;
9763;SDS011;4921;43.214;27.936;2022-10-16T06:23:03;3.70;;;3.10;;
9763;SDS011;4921;43.214;27.936;2022-10-16T06:25:30;4.63;;;2.93;;
9763;SDS011;4921;43.214;27.936;2022-10-16T06:27:58;2.97;;;2.70;;
9763;SDS011;4921;43.214;27.936;2022-10-16T06:30:27;7.20;;;6.03;;
9763;SDS011;4921;43.214;27.936;2022-10-16T06:32:54;6.80;;;3.40;;
9763;SDS011;4921;43.214;27.936;2022-10-16T06:35:20;5.43;;;3.43;;
9763;SDS011;4921;43.214;27.936;2022-10-16T06:37:47;8.83;;;3.33;;
9763;SDS011;4921;43.214;27.936;2022-10-16T06:40:14;2.77;;;2.53;;
9763;SDS011;4921;43.214;27.936;2022-10-16T06:42:41;6.20;;;2.70;;
9763;SDS011;4921;43.214;27.936;2022-10-16T06:45:08;4.63;;;2.53;;
9763;SDS011;4921;43.214;27.936;2022-10-16T06:47:37;4.40;;;2.30;;
9763;SDS011;4921;43.214;27.936;2022-10-16T06:50:05;3.03;;;2.23;;
9763;SDS011;4921;43.214;27.936;2022-10-16T06:52:32;4.83;;;2.20;;
9763;SDS011;4921;43.214;27.936;2022-10-16T06:55:00;6.87;;;2.60;;
9763;SDS011;4921;43.214;27.936;2022-10-16T06:57:27;4.40;;;2.33;;
9763;SDS011;4921;43.214;27.936;2022-10-16T06:59:54;2.83;;;2.23;;
9763;SDS011;4921;43.214;27.936;2022-10-16T07:02:21;4.03;;;2.50;;
9763;SDS011;4921;43.214;27.936;2022-10-16T07:04:50;4.23;;;2.20;;
9763;SDS011;4921;43.214;27.936;2022-10-16T07:07:17;3.50;;;2.13;;
9763;SDS011;4921;43.214;27.936;2022-10-16T07:09:43;4.30;;;2.37;;
9763;SDS011;4921;43.214;27.936;2022-10-16T07:12:11;6.70;;;2.80;;
9763;SDS011;4921;43.214;27.936;2022-10-16T07:14:37;3.20;;;1.97;;
9763;SDS011;4921;43.214;27.936;2022-10-16T07:17:04;2.87;;;2.10;;
9763;SDS011;4921;43.214;27.936;2022-10-16T07:19:31;5.40;;;2.63;;
9763;SDS011;4921;43.214;27.936;2022-10-16T07:21:59;7.30;;;2.40;;
9763;SDS011;4921;43.214;27.936;2022-10-16T07:24:26;2.73;;;2.27;;
9763;SDS011;4921;43.214;27.936;2022-10-16T07:26:53;4.63;;;2.33;;
9763;SDS011;4921;43.214;27.936;2022-10-16T07:29:21;3.07;;;2.13;;
9763;SDS011;4921;43.214;27.936;2022-10-16T07:31:48;2.80;;;2.20;;
9763;SDS011;4921;43.214;27.936;2022-10-16T07:34:16;9.43;;;2.47;;
9763;SDS011;4921;43.214;27.936;2022-10-16T07:36:47;3.87;;;2.10;;
9763;SDS011;4921;43.214;27.936;2022-10-16T07:39:16;5.07;;;1.70;;
9763;SDS011;4921;43.214;27.936;2022-10-16T07:41:43;3.00;;;2.00;;
9763;SDS011;4921;43.214;27.936;2022-10-16T07:44:10;4.77;;;1.93;;
9763;SDS011;4921;43.214;27.936;2022-10-16T07:46:37;4.27;;;2.53;;
9763;SDS011;4921;43.214;27.936;2022-10-16T07:49:04;7.10;;;2.00;;
9763;SDS011;4921;43.214;27.936;2022-10-16T07:51:31;4.57;;;1.97;;
9763;SDS011;4921;43.214;27.936;2022-10-16T07:53:58;2.13;;;1.93;;
9763;SDS011;4921;43.214;27.936;2022-10-16T07:56:26;4.13;;;2.10;;
9763;SDS011;4921;43.214;27.936;2022-10-16T07:58:53;3.57;;;2.00;;
9763;SDS011;4921;43.214;27.936;2022-10-16T08:01:21;3.73;;;2.07;;
9763;SDS011;4921;43.214;27.936;2022-10-16T08:03:49;5.23;;;2.03;;
9763;SDS011;4921;43.214;27.936;2022-10-16T08:06:18;4.40;;;1.97;;
9763;SDS011;4921;43.214;27.936;2022-10-16T08:08:45;3.00;;;1.80;;
9763;SDS011;4921;43.214;27.936;2022-10-16T08:11:13;4.57;;;2.07;;
9763;SDS011;4921;43.214;27.936;2022-10-16T08:13:41;2.50;;;1.90;;
9763;SDS011;4921;43.214;27.936;2022-10-16T08:16:08;2.87;;;1.60;;
9763;SDS011;4921;43.214;27.936;2022-10-16T08:18:37;2.60;;;2.10;;
9763;SDS011;4921;43.214;27.936;2022-10-16T08:21:07;7.53;;;1.90;;
9763;SDS011;4921;43.214;27.936;2022-10-16T08:23:38;4.13;;;1.97;;
9763;SDS011;4921;43.214;27.936;2022-10-16T08:26:06;5.33;;;2.10;;
9763;SDS011;4921;43.214;27.936;2022-10-16T08:28:33;3.33;;;1.90;;
9763;SDS011;4921;43.214;27.936;2022-10-16T08:31:06;2.40;;;1.90;;
9763;SDS011;4921;43.214;27.936;2022-10-16T08:33:38;4.43;;;2.23;;
9763;SDS011;4921;43.214;27.936;2022-10-16T08:36:05;9.07;;;2.20;;
9763;SDS011;4921;43.214;27.936;2022-10-16T08:38:33;3.80;;;2.00;;
9763;SDS011;4921;43.214;27.936;2022-10-16T08:41:02;3.30;;;2.07;;
9763;SDS011;4921;43.214;27.936;2022-10-16T08:43:56;3.83;;;1.60;;
9763;SDS011;4921;43.214;27.936;2022-10-16T08:46:45;6.23;;;2.07;;
9763;SDS011;4921;43.214;27.936;2022-10-16T08:49:21;6.33;;;2.00;;
9763;SDS011;4921;43.214;27.936;2022-10-16T08:51:49;2.97;;;1.70;;
9763;SDS011;4921;43.214;27.936;2022-10-16T08:54:26;5.70;;;2.10;;
9763;SDS011;4921;43.214;27.936;2022-10-16T08:56:56;9.20;;;2.00;;
9763;SDS011;4921;43.214;27.936;2022-10-16T08:59:27;3.77;;;2.00;;
9763;SDS011;4921;43.214;27.936;2022-10-16T09:01:55;5.13;;;1.83;;
9763;SDS011;4921;43.214;27.936;2022-10-16T09:07:38;5.13;;;1.80;;
9763;SDS011;4921;43.214;27.936;2022-10-16T09:10:13;2.27;;;1.57;;
9763;SDS011;4921;43.214;27.936;2022-10-16T09:12:53;4.93;;;1.90;;
9763;SDS011;4921;43.214;27.936;2022-10-16T09:15:29;4.03;;;1.70;;
9763;SDS011;4921;43.214;27.936;2022-10-16T09:18:04;2.77;;;1.93;;
9763;SDS011;4921;43.214;27.936;2022-10-16T09:20:38;3.23;;;1.80;;
9763;SDS011;4921;43.214;27.936;2022-10-16T09:23:15;3.17;;;2.10;;
9763;SDS011;4921;43.214;27.936;2022-10-16T09:25:45;7.00;;;2.07;;
9763;SDS011;4921;43.214;27.936;2022-10-16T09:28:15;5.83;;;2.33;;
9763;SDS011;4921;43.214;27.936;2022-10-16T09:30:43;2.77;;;2.17;;
9763;SDS011;4921;43.214;27.936;2022-10-16T09:33:12;2.87;;;1.80;;
9763;SDS011;4921;43.214;27.936;2022-10-16T09:35:40;5.50;;;2.07;;
9763;SDS011;4921;43.214;27.936;2022-10-16T09:38:09;5.77;;;2.37;;
9763;SDS011;4921;43.214;27.936;2022-10-16T09:40:47;3.93;;;1.80;;
9763;SDS011;4921;43.214;27.936;2022-10-16T09:43:18;3.57;;;1.73;;
9763;SDS011;4921;43.214;27.936;2022-10-16T09:45:54;3.87;;;1.87;;
9763;SDS011;4921;43.214;27.936;2022-10-16T09:48:25;2.60;;;2.10;;
9763;SDS011;4921;43.214;27.936;2022-10-16T09:50:57;4.90;;;1.80;;
9763;SDS011;4921;43.214;27.936;2022-10-16T09:53:26;2.90;;;1.80;;
9763;SDS011;4921;43.214;27.936;2022-10-16T09:56:06;3.00;;;1.80;;
9763;SDS011;4921;43.214;27.936;2022-10-16T09:58:33;3.30;;;1.97;;
9763;SDS011;4921;43.214;27.936;2022-10-16T10:00:59;4.37;;;2.17;;
9763;SDS011;4921;43.214;27.936;2022-10-16T10:03:33;7.67;;;2.13;;
9763;SDS011;4921;43.214;27.936;2022-10-16T10:06:05;3.80;;;1.83;;
9763;SDS011;4921;43.214;27.936;2022-10-16T10:08:41;2.63;;;1.80;;
9763;SDS011;4921;43.214;27.936;2022-10-16T10:11:18;8.13;;;2.93;;
9763;SDS011;4921;43.214;27.936;2022-10-16T10:14:05;1.93;;;1.80;;
9763;SDS011;4921;43.214;27.936;2022-10-16T10:16:32;6.30;;;2.03;;
9763;SDS011;4921;43.214;27.936;2022-10-16T10:19:01;2.47;;;2.10;;
9763;SDS011;4921;43.214;27.936;2022-10-16T10:21:28;3.93;;;1.70;;
9763;SDS011;4921;43.214;27.936;2022-10-16T10:23:55;7.73;;;2.40;;
9763;SDS011;4921;43.214;27.936;2022-10-16T10:26:23;3.87;;;2.20;;
9763;SDS011;4921;43.214;27.936;2022-10-16T10:28:55;4.50;;;1.90;;
9763;SDS011;4921;43.214;27.936;2022-10-16T10:31:33;3.83;;;1.90;;
9763;SDS011;4921;43.214;27.936;2022-10-16T10:34:14;3.03;;;1.80;;
9763;SDS011;4921;43.214;27.936;2022-10-16T10:36:52;3.60;;;2.03;;
9763;SDS011;4921;43.214;27.936;2022-10-16T10:39:27;7.00;;;2.40;;
9763;SDS011;4921;43.214;27.936;2022-10-16T10:44:55;5.43;;;1.70;;
9763;SDS011;4921;43.214;27.936;2022-10-16T10:47:32;3.23;;;2.10;;
9763;SDS011;4921;43.214;27.936;2022-10-16T10:50:12;5.90;;;2.43;;
9763;SDS011;4921;43.214;27.936;2022-10-16T10:52:46;2.33;;;2.13;;
9763;SDS011;4921;43.214;27.936;2022-10-16T10:55:20;3.87;;;2.10;;
9763;SDS011;4921;43.214;27.936;2022-10-16T10:57:57;4.30;;;2.17;;
9763;SDS011;4921;43.214;27.936;2022-10-16T11:00:39;7.30;;;2.30;;
9763;SDS011;4921;43.214;27.936;2022-10-16T11:03:19;6.07;;;2.30;;
9763;SDS011;4921;43.214;27.936;2022-10-16T11:05:59;2.90;;;2.00;;
9763;SDS011;4921;43.214;27.936;2022-10-16T11:08:32;4.90;;;2.27;;
9763;SDS011;4921;43.214;27.936;2022-10-16T11:11:02;3.93;;;1.83;;
9763;SDS011;4921;43.214;27.936;2022-10-16T11:13:33;4.70;;;1.97;;
9763;SDS011;4921;43.214;27.936;2022-10-16T11:16:08;7.57;;;2.00;;
9763;SDS011;4921;43.214;27.936;2022-10-16T11:18:42;4.37;;;2.20;;
9763;SDS011;4921;43.214;27.936;2022-10-16T11:21:18;4.70;;;1.93;;
9763;SDS011;4921;43.214;27.936;2022-10-16T11:23:48;5.13;;;2.13;;
9763;SDS011;4921;43.214;27.936;2022-10-16T11:26:21;2.47;;;1.80;;
9763;SDS011;4921;43.214;27.936;2022-10-16T11:28:51;11.40;;;2.93;;
9763;SDS011;4921;43.214;27.936;2022-10-16T11:31:22;2.97;;;2.07;;
9763;SDS011;4921;43.214;27.936;2022-10-16T11:33:59;4.53;;;2.37;;
9763;SDS011;4921;43.214;27.936;2022-10-16T11:36:33;2.33;;;2.07;;
9763;SDS011;4921;43.214;27.936;2022-10-16T11:39:08;2.83;;;2.13;;
9763;SDS011;4921;43.214;27.936;2022-10-16T11:41:44;2.83;;;2.03;;
9763;SDS011;4921;43.214;27.936;2022-10-16T11:44:20;4.00;;;2.20;;
9763;SDS011;4921;43.214;27.936;2022-10-16T11:47:01;4.77;;;3.00;;
9763;SDS011;4921;43.214;27.936;2022-10-16T11:49:35;3.47;;;2.33;;
9763;SDS011;4921;43.214;27.936;2022-10-16T11:52:07;4.90;;;2.10;;
9763;SDS011;4921;43.214;27.936;2022-10-16T11:54:44;5.07;;;2.00;;
9763;SDS011;4921;43.214;27.936;2022-10-16T11:57:15;3.00;;;2.00;;
9763;SDS011;4921;43.214;27.936;2022-10-16T11:59:45;3.80;;;1.80;;
9763;SDS011;4921;43.214;27.936;2022-10-16T12:02:23;4.37;;;2.23;;
9763;SDS011;4921;43.214;27.936;2022-10-16T12:05:01;2.53;;;2.17;;
9763;SDS011;4921;43.214;27.936;2022-10-16T12:07:41;2.93;;;2.00;;
9763;SDS011;4921;43.214;27.936;2022-10-16T12:10:18;7.43;;;1.83;;
9763;SDS011;4921;43.214;27.936;2022-10-16T12:12:47;5.03;;;2.40;;
9763;SDS011;4921;43.214;27.936;2022-10-16T12:15:21;5.57;;;2.00;;
9763;SDS011;4921;43.214;27.936;2022-10-16T12:17:50;2.87;;;2.10;;
9763;SDS011;4921;43.214;27.936;2022-10-16T12:20:19;3.43;;;2.00;;
9763;SDS011;4921;43.214;27.936;2022-10-16T12:22:53;1.90;;;1.80;;
9763;SDS011;4921;43.214;27.936;2022-10-16T12:25:23;5.07;;;2.10;;
9763;SDS011;4921;43.214;27.936;2022-10-16T12:27:54;1.90;;;1.80;;
9763;SDS011;4921;43.214;27.936;2022-10-16T12:30:23;4.83;;;2.00;;
9763;SDS011;4921;43.214;27.936;2022-10-16T12:32:53;2.00;;;1.80;;
9763;SDS011;4921;43.214;27.936;2022-10-16T12:35:22;4.47;;;2.23;;
9763;SDS011;4921;43.214;27.936;2022-10-16T12:37:53;1.97;;;1.80;;
9763;SDS011;4921;43.214;27.936;2022-10-16T12:40:26;3.97;;;2.10;;
9763;SDS011;4921;43.214;27.936;2022-10-16T12:42:55;1.93;;;1.70;;
9763;SDS011;4921;43.214;27.936;2022-10-16T12:45:26;3.30;;;1.83;;
9763;SDS011;4921;43.214;27.936;2022-10-16T12:47:56;3.03;;;2.20;;
9763;SDS011;4921;43.214;27.936;2022-10-16T12:50:25;4.30;;;1.93;;
9763;SDS011;4921;43.214;27.936;2022-10-16T12:52:57;3.30;;;2.30;;
9763;SDS011;4921;43.214;27.936;2022-10-16T12:55:24;4.67;;;2.40;;
9763;SDS011;4921;43.214;27.936;2022-10-16T12:58:14;2.93;;;2.33;;
9763;SDS011;4921;43.214;27.936;2022-10-16T13:00:55;4.43;;;2.20;;
9763;SDS011;4921;43.214;27.936;2022-10-16T13:06:27;2.30;;;1.80;;
9763;SDS011;4921;43.214;27.936;2022-10-16T13:09:05;3.93;;;2.20;;
9763;SDS011;4921;43.214;27.936;2022-10-16T13:11:45;4.47;;;2.10;;
9763;SDS011;4921;43.214;27.936;2022-10-16T13:17:18;5.10;;;2.27;;
9763;SDS011;4921;43.214;27.936;2022-10-16T13:19:53;2.47;;;2.17;;
9763;SDS011;4921;43.214;27.936;2022-10-16T13:22:29;3.57;;;2.50;;
9763;SDS011;4921;43.214;27.936;2022-10-16T13:25:08;7.27;;;2.27;;
9763;SDS011;4921;43.214;27.936;2022-10-16T13:27:45;4.23;;;1.97;;
9763;SDS011;4921;43.214;27.936;2022-10-16T13:30:20;4.33;;;2.23;;
9763;SDS011;4921;43.214;27.936;2022-10-16T13:32:50;3.67;;;2.33;;
9763;SDS011;4921;43.214;27.936;2022-10-16T13:35:24;4.70;;;2.30;;
9763;SDS011;4921;43.214;27.936;2022-10-16T13:38:02;7.90;;;2.20;;
9763;SDS011;4921;43.214;27.936;2022-10-16T13:40:32;2.80;;;2.50;;
9763;SDS011;4921;43.214;27.936;2022-10-16T13:43:00;3.90;;;2.17;;
9763;SDS011;4921;43.214;27.936;2022-10-16T13:45:27;3.47;;;1.90;;
9763;SDS011;4921;43.214;27.936;2022-10-16T13:48:01;2.67;;;2.03;;
9763;SDS011;4921;43.214;27.936;2022-10-16T13:50:28;4.00;;;2.20;;
9763;SDS011;4921;43.214;27.936;2022-10-16T13:53:03;2.73;;;2.27;;
9763;SDS011;4921;43.214;27.936;2022-10-16T13:55:32;7.10;;;2.40;;
9763;SDS011;4921;43.214;27.936;2022-10-16T13:58:06;2.47;;;2.27;;
9763;SDS011;4921;43.214;27.936;2022-10-16T14:00:34;3.77;;;1.83;;
9763;SDS011;4921;43.214;27.936;2022-10-16T14:03:02;2.87;;;1.63;;
9763;SDS011;4921;43.214;27.936;2022-10-16T14:05:31;3.07;;;2.10;;
9763;SDS011;4921;43.214;27.936;2022-10-16T14:07:59;5.93;;;2.20;;
9763;SDS011;4921;43.214;27.936;2022-10-16T14:10:27;6.47;;;2.43;;
9763;SDS011;4921;43.214;27.936;2022-10-16T14:12:59;4.00;;;2.13;;
9763;SDS011;4921;43.214;27.936;2022-10-16T14:15:28;3.63;;;2.30;;
9763;SDS011;4921;43.214;27.936;2022-10-16T14:17:56;2.17;;;1.93;;
9763;SDS011;4921;43.214;27.936;2022-10-16T14:20:26;2.40;;;2.20;;
9763;SDS011;4921;43.214;27.936;2022-10-16T14:22:58;3.63;;;2.03;;
9763;SDS011;4921;43.214;27.936;2022-10-16T14:25:27;3.73;;;2.10;;
9763;SDS011;4921;43.214;27.936;2022-10-16T14:27:57;2.87;;;1.80;;
9763;SDS011;4921;43.214;27.936;2022-10-16T14:30:27;3.03;;;2.30;;
9763;SDS011;4921;43.214;27.936;2022-10-16T14:32:56;3.93;;;1.70;;
9763;SDS011;4921;43.214;27.936;2022-10-16T14:35:25;7.20;;;2.10;;
9763;SDS011;4921;43.214;27.936;2022-10-16T14:37:54;5.73;;;2.07;;
9763;SDS011;4921;43.214;27.936;2022-10-16T14:40:23;2.40;;;1.93;;
9763;SDS011;4921;43.214;27.936;2022-10-16T14:42:52;2.93;;;2.10;;
9763;SDS011;4921;43.214;27.936;2022-10-16T14:45:22;5.97;;;2.13;;
9763;SDS011;4921;43.214;27.936;2022-10-16T14:47:51;3.63;;;1.90;;
9763;SDS011;4921;43.214;27.936;2022-10-16T14:50:20;3.37;;;2.17;;
9763;SDS011;4921;43.214;27.936;2022-10-16T14:52:47;2.57;;;1.87;;
9763;SDS011;4921;43.214;27.936;2022-10-16T14:55:14;5.73;;;2.07;;
9763;SDS011;4921;43.214;27.936;2022-10-16T14:57:42;9.30;;;2.20;;
9763;SDS011;4921;43.214;27.936;2022-10-16T15:00:14;3.70;;;2.00;;
9763;SDS011;4921;43.214;27.936;2022-10-16T15:02:45;4.90;;;2.50;;
9763;SDS011;4921;43.214;27.936;2022-10-16T15:05:14;31.27;;;14.47;;
9763;SDS011;4921;43.214;27.936;2022-10-16T15:07:43;10.13;;;4.90;;
9763;SDS011;4921;43.214;27.936;2022-10-16T15:10:10;3.77;;;3.07;;
9763;SDS011;4921;43.214;27.936;2022-10-16T15:12:38;4.90;;;2.77;;
9763;SDS011;4921;43.214;27.936;2022-10-16T15:15:15;4.97;;;2.63;;
9763;SDS011;4921;43.214;27.936;2022-10-16T15:17:53;4.80;;;2.77;;
9763;SDS011;4921;43.214;27.936;2022-10-16T15:20:22;3.30;;;2.67;;
9763;SDS011;4921;43.214;27.936;2022-10-16T15:22:51;3.07;;;2.33;;
9763;SDS011;4921;43.214;27.936;2022-10-16T15:25:25;3.57;;;2.77;;
9763;SDS011;4921;43.214;27.936;2022-10-16T15:27:59;3.73;;;2.33;;
9763;SDS011;4921;43.214;27.936;2022-10-16T15:30:27;6.50;;;3.00;;
9763;SDS011;4921;43.214;27.936;2022-10-16T15:32:56;2.93;;;2.10;;